sensor_id;sensor_type;location;lat;lon;timestamp;P1;durP1;ratioP1;P2;durP2;ratioP2
7049;SDS011;22263;52.260;10.548;2022-08-19T00:01:59;13.27;;;8.95;;
7049;SDS011;22263;52.260;10.548;2022-08-19T00:04:29;9.63;;;8.60;;
7049;SDS011;22263;52.260;10.548;2022-08-19T00:07:03;8.73;;;7.80;;
7049;SDS011;22263;52.260;10.548;2022-08-19T00:09:34;12.40;;;8.85;;
7049;SDS011;22263;52.260;10.548;2022-08-19T00:12:04;11.48;;;7.85;;
7049;SDS011;22263;52.260;10.548;2022-08-19T00:14:38;13.07;;;8.23;;
7049;SDS011;22263;52.260;10.548;2022-08-19T00:17:08;12.60;;;9.05;;
7049;SDS011;22263;52.260;10.548;2022-08-19T00:19:38;9.63;;;8.52;;
7049;SDS011;22263;52.260;10.548;2022-08-19T00:22:08;10.45;;;8.00;;
7049;SDS011;22263;52.260;10.548;2022-08-19T00:24:38;13.88;;;8.38;;
7049;SDS011;22263;52.260;10.548;2022-08-19T00:27:16;9.43;;;7.93;;
7049;SDS011;22263;52.260;10.548;2022-08-19T00:29:54;11.57;;;8.25;;
7049;SDS011;22263;52.260;10.548;2022-08-19T00:32:25;12.95;;;8.68;;
7049;SDS011;22263;52.260;10.548;2022-08-19T00:34:55;10.85;;;8.40;;
7049;SDS011;22263;52.260;10.548;2022-08-19T00:37:25;15.50;;;9.40;;
7049;SDS011;22263;52.260;10.548;2022-08-19T00:39:56;11.35;;;9.23;;
7049;SDS011;22263;52.260;10.548;2022-08-19T00:42:25;12.48;;;8.40;;
7049;SDS011;22263;52.260;10.548;2022-08-19T00:45:00;11.05;;;7.65;;
7049;SDS011;22263;52.260;10.548;2022-08-19T00:47:29;10.40;;;8.02;;
7049;SDS011;22263;52.260;10.548;2022-08-19T00:49:59;12.85;;;8.65;;
7049;SDS011;22263;52.260;10.548;2022-08-19T00:52:30;9.10;;;8.00;;
7049;SDS011;22263;52.260;10.548;2022-08-19T00:55:04;13.43;;;8.88;;
7049;SDS011;22263;52.260;10.548;2022-08-19T00:57:38;12.30;;;8.10;;
7049;SDS011;22263;52.260;10.548;2022-08-19T01:00:15;10.07;;;7.32;;
7049;SDS011;22263;52.260;10.548;2022-08-19T01:02:47;10.70;;;7.78;;
7049;SDS011;22263;52.260;10.548;2022-08-19T01:05:18;9.80;;;8.07;;
7049;SDS011;22263;52.260;10.548;2022-08-19T01:07:50;12.35;;;8.10;;
7049;SDS011;22263;52.260;10.548;2022-08-19T01:10:21;11.90;;;8.25;;
7049;SDS011;22263;52.260;10.548;2022-08-19T01:12:59;9.70;;;7.75;;
7049;SDS011;22263;52.260;10.548;2022-08-19T01:15:33;10.52;;;8.13;;
7049;SDS011;22263;52.260;10.548;2022-08-19T01:18:08;8.98;;;7.65;;
7049;SDS011;22263;52.260;10.548;2022-08-19T01:20:40;11.70;;;8.27;;
7049;SDS011;22263;52.260;10.548;2022-08-19T01:23:13;10.55;;;8.40;;
7049;SDS011;22263;52.260;10.548;2022-08-19T01:25:45;13.98;;;8.30;;
7049;SDS011;22263;52.260;10.548;2022-08-19T01:28:17;10.95;;;7.90;;
7049;SDS011;22263;52.260;10.548;2022-08-19T01:31:05;9.80;;;8.07;;
7049;SDS011;22263;52.260;10.548;2022-08-19T01:33:53;13.93;;;9.07;;
7049;SDS011;22263;52.260;10.548;2022-08-19T01:36:25;9.05;;;7.85;;
7049;SDS011;22263;52.260;10.548;2022-08-19T01:39:00;9.13;;;7.93;;
7049;SDS011;22263;52.260;10.548;2022-08-19T01:41:31;9.70;;;7.88;;
7049;SDS011;22263;52.260;10.548;2022-08-19T01:44:01;8.15;;;7.28;;
7049;SDS011;22263;52.260;10.548;2022-08-19T01:46:44;13.30;;;8.02;;
7049;SDS011;22263;52.260;10.548;2022-08-19T01:49:17;14.20;;;8.13;;
7049;SDS011;22263;52.260;10.548;2022-08-19T01:51:49;11.35;;;7.95;;
7049;SDS011;22263;52.260;10.548;2022-08-19T01:54:23;10.07;;;8.30;;
7049;SDS011;22263;52.260;10.548;2022-08-19T01:56:55;11.05;;;8.18;;
7049;SDS011;22263;52.260;10.548;2022-08-19T01:59:29;10.00;;;7.90;;
7049;SDS011;22263;52.260;10.548;2022-08-19T02:02:00;13.80;;;8.55;;
7049;SDS011;22263;52.260;10.548;2022-08-19T02:04:29;10.98;;;8.57;;
7049;SDS011;22263;52.260;10.548;2022-08-19T02:06:59;10.95;;;7.78;;
7049;SDS011;22263;52.260;10.548;2022-08-19T02:09:32;9.07;;;7.63;;
7049;SDS011;22263;52.260;10.548;2022-08-19T02:12:03;10.32;;;8.25;;
7049;SDS011;22263;52.260;10.548;2022-08-19T02:14:34;10.63;;;7.55;;
7049;SDS011;22263;52.260;10.548;2022-08-19T02:17:03;9.48;;;7.97;;
7049;SDS011;22263;52.260;10.548;2022-08-19T02:19:33;13.73;;;8.13;;
7049;SDS011;22263;52.260;10.548;2022-08-19T02:22:06;10.30;;;8.00;;
7049;SDS011;22263;52.260;10.548;2022-08-19T02:24:38;12.05;;;8.20;;
7049;SDS011;22263;52.260;10.548;2022-08-19T02:27:11;9.45;;;7.65;;
7049;SDS011;22263;52.260;10.548;2022-08-19T02:29:40;10.68;;;7.80;;
7049;SDS011;22263;52.260;10.548;2022-08-19T02:32:10;10.68;;;7.90;;
7049;SDS011;22263;52.260;10.548;2022-08-19T02:34:39;11.23;;;8.13;;
7049;SDS011;22263;52.260;10.548;2022-08-19T02:37:09;10.32;;;8.27;;
7049;SDS011;22263;52.260;10.548;2022-08-19T02:40:03;14.10;;;10.30;;
7049;SDS011;22263;52.260;10.548;2022-08-19T02:42:38;13.05;;;11.32;;
7049;SDS011;22263;52.260;10.548;2022-08-19T02:45:08;10.55;;;8.23;;
7049;SDS011;22263;52.260;10.548;2022-08-19T02:47:38;9.48;;;8.38;;
7049;SDS011;22263;52.260;10.548;2022-08-19T02:50:09;13.30;;;8.00;;
7049;SDS011;22263;52.260;10.548;2022-08-19T02:52:39;10.05;;;8.20;;
7049;SDS011;22263;52.260;10.548;2022-08-19T02:55:11;9.82;;;7.72;;
7049;SDS011;22263;52.260;10.548;2022-08-19T02:57:41;9.70;;;8.57;;
7049;SDS011;22263;52.260;10.548;2022-08-19T03:00:11;25.80;;;19.23;;
7049;SDS011;22263;52.260;10.548;2022-08-19T03:02:41;11.68;;;9.05;;
7049;SDS011;22263;52.260;10.548;2022-08-19T03:05:10;11.40;;;9.07;;
7049;SDS011;22263;52.260;10.548;2022-08-19T03:07:40;12.45;;;9.13;;
7049;SDS011;22263;52.260;10.548;2022-08-19T03:10:12;12.80;;;9.27;;
7049;SDS011;22263;52.260;10.548;2022-08-19T03:12:42;14.43;;;9.02;;
7049;SDS011;22263;52.260;10.548;2022-08-19T03:15:12;13.65;;;8.77;;
7049;SDS011;22263;52.260;10.548;2022-08-19T03:17:42;13.18;;;9.02;;
7049;SDS011;22263;52.260;10.548;2022-08-19T03:20:12;10.02;;;9.02;;
7049;SDS011;22263;52.260;10.548;2022-08-19T03:22:41;13.10;;;8.95;;
7049;SDS011;22263;52.260;10.548;2022-08-19T03:25:13;13.82;;;9.27;;
7049;SDS011;22263;52.260;10.548;2022-08-19T03:27:43;12.38;;;9.18;;
7049;SDS011;22263;52.260;10.548;2022-08-19T03:30:15;10.73;;;8.40;;
7049;SDS011;22263;52.260;10.548;2022-08-19T03:32:49;12.98;;;9.10;;
7049;SDS011;22263;52.260;10.548;2022-08-19T03:35:22;13.05;;;8.30;;
7049;SDS011;22263;52.260;10.548;2022-08-19T03:37:52;15.02;;;8.77;;
7049;SDS011;22263;52.260;10.548;2022-08-19T03:40:25;11.80;;;8.50;;
7049;SDS011;22263;52.260;10.548;2022-08-19T03:42:56;13.93;;;8.68;;
7049;SDS011;22263;52.260;10.548;2022-08-19T03:45:26;11.40;;;8.55;;
7049;SDS011;22263;52.260;10.548;2022-08-19T03:47:55;11.07;;;8.75;;
7049;SDS011;22263;52.260;10.548;2022-08-19T03:50:25;10.23;;;8.30;;
7049;SDS011;22263;52.260;10.548;2022-08-19T03:52:54;11.80;;;8.25;;
7049;SDS011;22263;52.260;10.548;2022-08-19T03:55:27;9.10;;;8.00;;
7049;SDS011;22263;52.260;10.548;2022-08-19T03:57:56;12.38;;;8.65;;
7049;SDS011;22263;52.260;10.548;2022-08-19T04:00:26;11.32;;;8.35;;
7049;SDS011;22263;52.260;10.548;2022-08-19T04:02:55;11.20;;;8.63;;
7049;SDS011;22263;52.260;10.548;2022-08-19T04:05:26;13.30;;;9.30;;
7049;SDS011;22263;52.260;10.548;2022-08-19T04:07:57;10.88;;;8.35;;
7049;SDS011;22263;52.260;10.548;2022-08-19T04:10:29;12.70;;;8.43;;
7049;SDS011;22263;52.260;10.548;2022-08-19T04:12:59;16.00;;;9.85;;
7049;SDS011;22263;52.260;10.548;2022-08-19T04:15:28;12.02;;;8.60;;
7049;SDS011;22263;52.260;10.548;2022-08-19T04:18:02;12.30;;;9.48;;
7049;SDS011;22263;52.260;10.548;2022-08-19T04:20:32;9.52;;;8.18;;
7049;SDS011;22263;52.260;10.548;2022-08-19T04:23:01;12.93;;;8.40;;
7049;SDS011;22263;52.260;10.548;2022-08-19T04:25:39;10.00;;;8.63;;
7049;SDS011;22263;52.260;10.548;2022-08-19T04:28:11;12.68;;;9.18;;
7049;SDS011;22263;52.260;10.548;2022-08-19T04:30:44;12.27;;;8.90;;
7049;SDS011;22263;52.260;10.548;2022-08-19T04:33:16;12.90;;;8.63;;
7049;SDS011;22263;52.260;10.548;2022-08-19T04:35:53;12.43;;;9.30;;
7049;SDS011;22263;52.260;10.548;2022-08-19T04:38:24;14.13;;;10.88;;
7049;SDS011;22263;52.260;10.548;2022-08-19T04:40:57;11.32;;;8.85;;
7049;SDS011;22263;52.260;10.548;2022-08-19T04:43:51;13.20;;;10.07;;
7049;SDS011;22263;52.260;10.548;2022-08-19T04:46:20;11.63;;;8.85;;
7049;SDS011;22263;52.260;10.548;2022-08-19T04:49:10;10.82;;;8.65;;
7049;SDS011;22263;52.260;10.548;2022-08-19T04:51:41;13.80;;;9.48;;
7049;SDS011;22263;52.260;10.548;2022-08-19T04:54:13;17.58;;;11.23;;
7049;SDS011;22263;52.260;10.548;2022-08-19T04:57:07;11.45;;;9.45;;
7049;SDS011;22263;52.260;10.548;2022-08-19T04:59:38;9.70;;;7.95;;
7049;SDS011;22263;52.260;10.548;2022-08-19T05:02:08;12.52;;;8.77;;
7049;SDS011;22263;52.260;10.548;2022-08-19T05:04:38;12.35;;;8.35;;
7049;SDS011;22263;52.260;10.548;2022-08-19T05:07:07;11.50;;;8.27;;
7049;SDS011;22263;52.260;10.548;2022-08-19T05:09:37;10.50;;;7.97;;
7049;SDS011;22263;52.260;10.548;2022-08-19T05:12:26;9.68;;;8.00;;
7049;SDS011;22263;52.260;10.548;2022-08-19T05:14:56;10.88;;;7.90;;
7049;SDS011;22263;52.260;10.548;2022-08-19T05:17:27;12.63;;;8.07;;
7049;SDS011;22263;52.260;10.548;2022-08-19T05:20:03;11.52;;;8.32;;
7049;SDS011;22263;52.260;10.548;2022-08-19T05:22:46;10.50;;;8.40;;
7049;SDS011;22263;52.260;10.548;2022-08-19T05:25:17;10.20;;;8.73;;
7049;SDS011;22263;52.260;10.548;2022-08-19T05:27:50;13.10;;;8.85;;
7049;SDS011;22263;52.260;10.548;2022-08-19T05:33:55;12.55;;;8.18;;
7049;SDS011;22263;52.260;10.548;2022-08-19T05:36:24;11.52;;;9.27;;
7049;SDS011;22263;52.260;10.548;2022-08-19T05:38:54;13.73;;;9.43;;
7049;SDS011;22263;52.260;10.548;2022-08-19T05:41:24;13.75;;;8.77;;
7049;SDS011;22263;52.260;10.548;2022-08-19T05:43:58;11.77;;;7.88;;
7049;SDS011;22263;52.260;10.548;2022-08-19T05:46:32;11.00;;;8.18;;
7049;SDS011;22263;52.260;10.548;2022-08-19T05:49:03;12.05;;;8.15;;
7049;SDS011;22263;52.260;10.548;2022-08-19T05:51:33;12.27;;;8.20;;
7049;SDS011;22263;52.260;10.548;2022-08-19T05:54:04;11.55;;;8.48;;
7049;SDS011;22263;52.260;10.548;2022-08-19T05:56:35;12.18;;;7.88;;
7049;SDS011;22263;52.260;10.548;2022-08-19T05:59:07;11.88;;;8.45;;
7049;SDS011;22263;52.260;10.548;2022-08-19T06:01:40;13.02;;;8.38;;
7049;SDS011;22263;52.260;10.548;2022-08-19T06:04:11;11.18;;;8.45;;
7049;SDS011;22263;52.260;10.548;2022-08-19T06:06:45;10.90;;;8.02;;
7049;SDS011;22263;52.260;10.548;2022-08-19T06:09:15;14.57;;;8.45;;
7049;SDS011;22263;52.260;10.548;2022-08-19T06:14:58;11.95;;;8.10;;
7049;SDS011;22263;52.260;10.548;2022-08-19T06:17:27;10.73;;;7.53;;
7049;SDS011;22263;52.260;10.548;2022-08-19T06:19:58;10.77;;;7.97;;
7049;SDS011;22263;52.260;10.548;2022-08-19T06:22:27;8.50;;;6.80;;
7049;SDS011;22263;52.260;10.548;2022-08-19T06:24:57;9.23;;;7.60;;
7049;SDS011;22263;52.260;10.548;2022-08-19T06:27:27;9.70;;;7.60;;
7049;SDS011;22263;52.260;10.548;2022-08-19T06:30:00;10.68;;;7.90;;
7049;SDS011;22263;52.260;10.548;2022-08-19T06:32:30;11.55;;;7.63;;
7049;SDS011;22263;52.260;10.548;2022-08-19T06:35:00;13.45;;;7.82;;
7049;SDS011;22263;52.260;10.548;2022-08-19T06:37:29;9.50;;;6.38;;
7049;SDS011;22263;52.260;10.548;2022-08-19T06:39:59;8.07;;;6.53;;
7049;SDS011;22263;52.260;10.548;2022-08-19T06:42:28;9.20;;;7.00;;
7049;SDS011;22263;52.260;10.548;2022-08-19T06:45:02;8.98;;;7.38;;
7049;SDS011;22263;52.260;10.548;2022-08-19T06:47:34;11.38;;;6.25;;
7049;SDS011;22263;52.260;10.548;2022-08-19T06:50:04;8.15;;;6.50;;
7049;SDS011;22263;52.260;10.548;2022-08-19T06:52:35;11.05;;;6.68;;
7049;SDS011;22263;52.260;10.548;2022-08-19T06:55:06;7.93;;;6.22;;
7049;SDS011;22263;52.260;10.548;2022-08-19T06:57:36;8.40;;;6.13;;
7049;SDS011;22263;52.260;10.548;2022-08-19T07:00:09;8.07;;;5.80;;
7049;SDS011;22263;52.260;10.548;2022-08-19T07:02:40;6.68;;;5.28;;
7049;SDS011;22263;52.260;10.548;2022-08-19T07:05:20;6.50;;;5.35;;
7049;SDS011;22263;52.260;10.548;2022-08-19T07:07:50;6.00;;;5.25;;
7049;SDS011;22263;52.260;10.548;2022-08-19T07:10:24;5.85;;;5.13;;
7049;SDS011;22263;52.260;10.548;2022-08-19T07:12:53;8.30;;;5.43;;
7049;SDS011;22263;52.260;10.548;2022-08-19T07:15:25;5.97;;;4.72;;
7049;SDS011;22263;52.260;10.548;2022-08-19T07:17:55;9.07;;;5.25;;
7049;SDS011;22263;52.260;10.548;2022-08-19T07:20:25;7.05;;;5.30;;
7049;SDS011;22263;52.260;10.548;2022-08-19T07:22:54;6.93;;;5.35;;
7049;SDS011;22263;52.260;10.548;2022-08-19T07:25:24;7.50;;;5.60;;
7049;SDS011;22263;52.260;10.548;2022-08-19T07:27:58;9.05;;;5.60;;
7049;SDS011;22263;52.260;10.548;2022-08-19T07:30:30;7.90;;;5.03;;
7049;SDS011;22263;52.260;10.548;2022-08-19T07:33:00;7.72;;;5.45;;
7049;SDS011;22263;52.260;10.548;2022-08-19T07:35:30;11.50;;;5.70;;
7049;SDS011;22263;52.260;10.548;2022-08-19T07:38:01;8.38;;;5.50;;
7049;SDS011;22263;52.260;10.548;2022-08-19T07:40:31;6.30;;;5.30;;
7049;SDS011;22263;52.260;10.548;2022-08-19T07:43:00;6.95;;;4.93;;
7049;SDS011;22263;52.260;10.548;2022-08-19T07:45:32;7.10;;;4.93;;
7049;SDS011;22263;52.260;10.548;2022-08-19T07:48:02;5.65;;;4.38;;
7049;SDS011;22263;52.260;10.548;2022-08-19T07:50:32;6.50;;;5.00;;
7049;SDS011;22263;52.260;10.548;2022-08-19T07:53:03;6.97;;;4.97;;
7049;SDS011;22263;52.260;10.548;2022-08-19T07:55:33;7.97;;;5.30;;
7049;SDS011;22263;52.260;10.548;2022-08-19T07:58:08;5.18;;;4.68;;
7049;SDS011;22263;52.260;10.548;2022-08-19T08:00:42;5.78;;;4.53;;
7049;SDS011;22263;52.260;10.548;2022-08-19T08:03:13;7.22;;;4.45;;
7049;SDS011;22263;52.260;10.548;2022-08-19T08:05:45;6.88;;;4.80;;
7049;SDS011;22263;52.260;10.548;2022-08-19T08:08:27;7.10;;;4.85;;
7049;SDS011;22263;52.260;10.548;2022-08-19T08:11:13;8.27;;;4.97;;
7049;SDS011;22263;52.260;10.548;2022-08-19T08:13:49;5.82;;;4.93;;
7049;SDS011;22263;52.260;10.548;2022-08-19T08:16:33;6.90;;;4.65;;
7049;SDS011;22263;52.260;10.548;2022-08-19T08:19:12;5.68;;;4.95;;
7049;SDS011;22263;52.260;10.548;2022-08-19T08:21:51;5.10;;;4.60;;
7049;SDS011;22263;52.260;10.548;2022-08-19T08:24:21;6.57;;;4.97;;
7049;SDS011;22263;52.260;10.548;2022-08-19T08:26:54;5.07;;;4.50;;
7049;SDS011;22263;52.260;10.548;2022-08-19T08:29:25;5.35;;;4.60;;
7049;SDS011;22263;52.260;10.548;2022-08-19T08:32:03;5.70;;;5.20;;
7049;SDS011;22263;52.260;10.548;2022-08-19T08:34:40;7.03;;;4.30;;
7049;SDS011;22263;52.260;10.548;2022-08-19T08:37:12;6.40;;;4.47;;
7049;SDS011;22263;52.260;10.548;2022-08-19T08:39:42;7.38;;;4.90;;
7049;SDS011;22263;52.260;10.548;2022-08-19T08:42:14;7.25;;;4.68;;
7049;SDS011;22263;52.260;10.548;2022-08-19T08:44:50;7.47;;;4.82;;
7049;SDS011;22263;52.260;10.548;2022-08-19T08:47:31;6.40;;;4.35;;
7049;SDS011;22263;52.260;10.548;2022-08-19T08:50:08;5.15;;;4.28;;
7049;SDS011;22263;52.260;10.548;2022-08-19T08:52:43;8.43;;;4.35;;
7049;SDS011;22263;52.260;10.548;2022-08-19T08:55:18;5.50;;;4.32;;
7049;SDS011;22263;52.260;10.548;2022-08-19T08:57:52;7.43;;;4.28;;
7049;SDS011;22263;52.260;10.548;2022-08-19T09:00:26;8.18;;;4.75;;
7049;SDS011;22263;52.260;10.548;2022-08-19T09:03:02;4.85;;;4.15;;
7049;SDS011;22263;52.260;10.548;2022-08-19T09:05:37;5.22;;;4.30;;
7049;SDS011;22263;52.260;10.548;2022-08-19T09:08:15;4.38;;;3.97;;
7049;SDS011;22263;52.260;10.548;2022-08-19T09:10:53;6.47;;;4.22;;
7049;SDS011;22263;52.260;10.548;2022-08-19T09:16:36;5.75;;;3.78;;
7049;SDS011;22263;52.260;10.548;2022-08-19T09:19:09;4.70;;;3.95;;
7049;SDS011;22263;52.260;10.548;2022-08-19T09:21:39;7.65;;;4.80;;
7049;SDS011;22263;52.260;10.548;2022-08-19T09:24:08;6.65;;;3.97;;
7049;SDS011;22263;52.260;10.548;2022-08-19T09:26:38;5.65;;;4.28;;
7049;SDS011;22263;52.260;10.548;2022-08-19T09:29:18;6.03;;;4.75;;
7049;SDS011;22263;52.260;10.548;2022-08-19T09:31:48;9.93;;;4.65;;
7049;SDS011;22263;52.260;10.548;2022-08-19T09:34:20;8.10;;;4.40;;
7049;SDS011;22263;52.260;10.548;2022-08-19T09:36:50;7.78;;;4.38;;
7049;SDS011;22263;52.260;10.548;2022-08-19T09:39:21;6.60;;;4.63;;
7049;SDS011;22263;52.260;10.548;2022-08-19T09:42:01;8.10;;;4.80;;
7049;SDS011;22263;52.260;10.548;2022-08-19T09:44:42;6.93;;;5.05;;
7049;SDS011;22263;52.260;10.548;2022-08-19T09:47:12;7.15;;;5.13;;
7049;SDS011;22263;52.260;10.548;2022-08-19T09:49:47;5.65;;;5.10;;
7049;SDS011;22263;52.260;10.548;2022-08-19T09:52:17;5.78;;;4.88;;
7049;SDS011;22263;52.260;10.548;2022-08-19T09:54:47;7.93;;;5.75;;
7049;SDS011;22263;52.260;10.548;2022-08-19T09:57:17;8.38;;;6.20;;
7049;SDS011;22263;52.260;10.548;2022-08-19T09:59:47;6.25;;;5.38;;
7049;SDS011;22263;52.260;10.548;2022-08-19T10:02:16;11.80;;;9.05;;
7049;SDS011;22263;52.260;10.548;2022-08-19T10:04:50;12.02;;;7.97;;
7049;SDS011;22263;52.260;10.548;2022-08-19T10:07:32;9.07;;;6.28;;
7049;SDS011;22263;52.260;10.548;2022-08-19T10:10:02;8.20;;;5.72;;
7049;SDS011;22263;52.260;10.548;2022-08-19T10:12:33;8.52;;;5.78;;
7049;SDS011;22263;52.260;10.548;2022-08-19T10:15:03;6.80;;;5.47;;
7049;SDS011;22263;52.260;10.548;2022-08-19T10:17:34;9.50;;;5.97;;
7049;SDS011;22263;52.260;10.548;2022-08-19T10:20:07;8.65;;;6.20;;
7049;SDS011;22263;52.260;10.548;2022-08-19T10:22:37;8.55;;;5.68;;
7049;SDS011;22263;52.260;10.548;2022-08-19T10:25:08;6.70;;;6.00;;
7049;SDS011;22263;52.260;10.548;2022-08-19T10:27:42;7.97;;;6.20;;
7049;SDS011;22263;52.260;10.548;2022-08-19T10:30:16;7.38;;;5.78;;
7049;SDS011;22263;52.260;10.548;2022-08-19T10:32:46;6.80;;;5.80;;
7049;SDS011;22263;52.260;10.548;2022-08-19T10:35:18;7.53;;;6.15;;
7049;SDS011;22263;52.260;10.548;2022-08-19T10:37:48;6.88;;;5.68;;
7049;SDS011;22263;52.260;10.548;2022-08-19T10:40:25;5.82;;;5.20;;
7049;SDS011;22263;52.260;10.548;2022-08-19T10:42:56;8.48;;;5.63;;
7049;SDS011;22263;52.260;10.548;2022-08-19T10:45:25;6.90;;;5.43;;
7049;SDS011;22263;52.260;10.548;2022-08-19T10:47:55;7.07;;;5.43;;
7049;SDS011;22263;52.260;10.548;2022-08-19T10:50:27;5.20;;;4.68;;
7049;SDS011;22263;52.260;10.548;2022-08-19T10:53:18;5.97;;;5.20;;
7049;SDS011;22263;52.260;10.548;2022-08-19T10:55:51;5.60;;;4.63;;
7049;SDS011;22263;52.260;10.548;2022-08-19T10:58:33;9.68;;;5.43;;
7049;SDS011;22263;52.260;10.548;2022-08-19T11:01:03;7.25;;;5.20;;
7049;SDS011;22263;52.260;10.548;2022-08-19T11:03:32;8.38;;;5.05;;
7049;SDS011;22263;52.260;10.548;2022-08-19T11:06:05;5.35;;;4.00;;
7049;SDS011;22263;52.260;10.548;2022-08-19T11:08:36;4.88;;;4.43;;
7049;SDS011;22263;52.260;10.548;2022-08-19T11:11:10;5.68;;;4.30;;
7049;SDS011;22263;52.260;10.548;2022-08-19T11:13:40;5.90;;;4.53;;
7049;SDS011;22263;52.260;10.548;2022-08-19T11:16:14;5.20;;;4.28;;
7049;SDS011;22263;52.260;10.548;2022-08-19T11:18:46;5.57;;;4.78;;
7049;SDS011;22263;52.260;10.548;2022-08-19T11:21:21;6.63;;;4.50;;
7049;SDS011;22263;52.260;10.548;2022-08-19T11:23:54;7.20;;;4.90;;
7049;SDS011;22263;52.260;10.548;2022-08-19T11:26:25;4.90;;;4.40;;
7049;SDS011;22263;52.260;10.548;2022-08-19T11:28:56;6.13;;;4.22;;
7049;SDS011;22263;52.260;10.548;2022-08-19T11:31:27;7.22;;;5.55;;
7049;SDS011;22263;52.260;10.548;2022-08-19T11:33:58;5.43;;;4.90;;
7049;SDS011;22263;52.260;10.548;2022-08-19T11:36:33;8.70;;;5.78;;
7049;SDS011;22263;52.260;10.548;2022-08-19T11:39:04;5.95;;;4.97;;
7049;SDS011;22263;52.260;10.548;2022-08-19T11:41:35;5.15;;;4.65;;
7049;SDS011;22263;52.260;10.548;2022-08-19T11:44:05;5.55;;;4.75;;
7049;SDS011;22263;52.260;10.548;2022-08-19T11:46:37;5.53;;;4.93;;
7049;SDS011;22263;52.260;10.548;2022-08-19T11:49:07;5.03;;;4.53;;
7049;SDS011;22263;52.260;10.548;2022-08-19T11:51:42;6.65;;;4.70;;
7049;SDS011;22263;52.260;10.548;2022-08-19T11:54:12;4.95;;;4.32;;
7049;SDS011;22263;52.260;10.548;2022-08-19T11:56:43;6.45;;;5.10;;
7049;SDS011;22263;52.260;10.548;2022-08-19T11:59:15;7.47;;;4.88;;
7049;SDS011;22263;52.260;10.548;2022-08-19T12:01:44;7.43;;;5.13;;
7049;SDS011;22263;52.260;10.548;2022-08-19T12:04:14;6.55;;;5.13;;
7049;SDS011;22263;52.260;10.548;2022-08-19T12:06:48;6.75;;;5.70;;
7049;SDS011;22263;52.260;10.548;2022-08-19T12:09:17;6.10;;;5.50;;
7049;SDS011;22263;52.260;10.548;2022-08-19T12:11:48;6.75;;;5.00;;
7049;SDS011;22263;52.260;10.548;2022-08-19T12:14:17;6.28;;;5.68;;
7049;SDS011;22263;52.260;10.548;2022-08-19T12:16:47;6.78;;;5.63;;
7049;SDS011;22263;52.260;10.548;2022-08-19T12:19:18;5.05;;;4.40;;
7049;SDS011;22263;52.260;10.548;2022-08-19T12:21:51;6.32;;;4.97;;
7049;SDS011;22263;52.260;10.548;2022-08-19T12:33:55;5.15;;;4.65;;
7049;SDS011;22263;52.260;10.548;2022-08-19T12:36:25;5.10;;;3.80;;
7049;SDS011;22263;52.260;10.548;2022-08-19T12:38:57;4.38;;;3.97;;
7049;SDS011;22263;52.260;10.548;2022-08-19T12:41:27;4.75;;;4.35;;
7049;SDS011;22263;52.260;10.548;2022-08-19T12:43:57;5.00;;;4.35;;
7049;SDS011;22263;52.260;10.548;2022-08-19T12:46:27;4.60;;;4.00;;
7049;SDS011;22263;52.260;10.548;2022-08-19T12:48:59;5.63;;;3.90;;
7049;SDS011;22263;52.260;10.548;2022-08-19T12:51:49;6.25;;;3.97;;
7049;SDS011;22263;52.260;10.548;2022-08-19T12:54:21;4.93;;;4.00;;
7049;SDS011;22263;52.260;10.548;2022-08-19T12:56:50;5.03;;;4.18;;
7049;SDS011;22263;52.260;10.548;2022-08-19T12:59:20;5.43;;;4.10;;
7049;SDS011;22263;52.260;10.548;2022-08-19T13:01:49;5.22;;;4.47;;
7049;SDS011;22263;52.260;10.548;2022-08-19T13:04:19;4.20;;;3.80;;
7049;SDS011;22263;52.260;10.548;2022-08-19T13:06:48;5.18;;;4.60;;
7049;SDS011;22263;52.260;10.548;2022-08-19T13:09:17;3.88;;;3.47;;
7049;SDS011;22263;52.260;10.548;2022-08-19T13:11:49;4.65;;;4.13;;
7049;SDS011;22263;52.260;10.548;2022-08-19T13:14:19;4.28;;;3.88;;
7049;SDS011;22263;52.260;10.548;2022-08-19T13:16:48;5.38;;;4.38;;
7049;SDS011;22263;52.260;10.548;2022-08-19T13:19:18;4.63;;;4.15;;
7049;SDS011;22263;52.260;10.548;2022-08-19T13:21:49;4.50;;;4.10;;
7049;SDS011;22263;52.260;10.548;2022-08-19T13:24:28;4.68;;;3.58;;
7049;SDS011;22263;52.260;10.548;2022-08-19T13:26:59;5.75;;;4.10;;
7049;SDS011;22263;52.260;10.548;2022-08-19T13:29:28;4.00;;;3.60;;
7049;SDS011;22263;52.260;10.548;2022-08-19T13:32:10;6.68;;;4.10;;
7049;SDS011;22263;52.260;10.548;2022-08-19T13:34:52;4.93;;;4.38;;
7049;SDS011;22263;52.260;10.548;2022-08-19T13:37:21;4.80;;;3.60;;
7049;SDS011;22263;52.260;10.548;2022-08-19T13:40:11;4.43;;;3.88;;
7049;SDS011;22263;52.260;10.548;2022-08-19T13:42:45;4.45;;;4.05;;
7049;SDS011;22263;52.260;10.548;2022-08-19T13:45:17;4.32;;;3.70;;
7049;SDS011;22263;52.260;10.548;2022-08-19T13:47:49;4.20;;;3.80;;
7049;SDS011;22263;52.260;10.548;2022-08-19T13:50:25;7.88;;;7.10;;
7049;SDS011;22263;52.260;10.548;2022-08-19T13:52:57;8.23;;;7.32;;
7049;SDS011;22263;52.260;10.548;2022-08-19T13:55:30;4.47;;;3.47;;
7049;SDS011;22263;52.260;10.548;2022-08-19T13:58:00;4.07;;;3.63;;
7049;SDS011;22263;52.260;10.548;2022-08-19T14:00:31;4.32;;;3.83;;
7049;SDS011;22263;52.260;10.548;2022-08-19T14:03:03;4.47;;;4.07;;
7049;SDS011;22263;52.260;10.548;2022-08-19T14:05:35;4.03;;;3.67;;
7049;SDS011;22263;52.260;10.548;2022-08-19T14:08:05;3.38;;;3.08;;
7049;SDS011;22263;52.260;10.548;2022-08-19T14:10:38;4.22;;;3.83;;
7049;SDS011;22263;52.260;10.548;2022-08-19T14:13:12;8.75;;;4.60;;
7049;SDS011;22263;52.260;10.548;2022-08-19T14:15:43;13.35;;;12.00;;
7049;SDS011;22263;52.260;10.548;2022-08-19T14:18:13;4.57;;;4.18;;
7049;SDS011;22263;52.260;10.548;2022-08-19T14:20:44;4.90;;;4.15;;
7049;SDS011;22263;52.260;10.548;2022-08-19T14:23:13;5.10;;;4.60;;
7049;SDS011;22263;52.260;10.548;2022-08-19T14:25:45;5.43;;;4.88;;
7049;SDS011;22263;52.260;10.548;2022-08-19T14:28:15;4.25;;;3.72;;
7049;SDS011;22263;52.260;10.548;2022-08-19T14:30:45;7.93;;;3.72;;
7049;SDS011;22263;52.260;10.548;2022-08-19T14:33:20;4.60;;;4.00;;
7049;SDS011;22263;52.260;10.548;2022-08-19T14:35:55;4.90;;;3.83;;
7049;SDS011;22263;52.260;10.548;2022-08-19T14:38:26;4.22;;;3.70;;
7049;SDS011;22263;52.260;10.548;2022-08-19T14:41:08;4.40;;;3.80;;
7049;SDS011;22263;52.260;10.548;2022-08-19T14:43:40;4.20;;;3.80;;
7049;SDS011;22263;52.260;10.548;2022-08-19T14:46:12;3.47;;;3.13;;
7049;SDS011;22263;52.260;10.548;2022-08-19T14:48:43;7.72;;;6.32;;
7049;SDS011;22263;52.260;10.548;2022-08-19T14:51:16;4.55;;;4.15;;
7049;SDS011;22263;52.260;10.548;2022-08-19T14:53:47;4.13;;;3.72;;
7049;SDS011;22263;52.260;10.548;2022-08-19T14:56:21;4.53;;;3.80;;
7049;SDS011;22263;52.260;10.548;2022-08-19T14:58:53;5.25;;;3.83;;
7049;SDS011;22263;52.260;10.548;2022-08-19T15:01:25;4.30;;;3.90;;
7049;SDS011;22263;52.260;10.548;2022-08-19T15:03:56;5.40;;;4.43;;
7049;SDS011;22263;52.260;10.548;2022-08-19T15:06:26;5.93;;;4.07;;
7049;SDS011;22263;52.260;10.548;2022-08-19T15:08:55;5.82;;;4.97;;
7049;SDS011;22263;52.260;10.548;2022-08-19T15:11:32;6.07;;;5.47;;
7049;SDS011;22263;52.260;10.548;2022-08-19T15:14:01;4.22;;;3.83;;
7049;SDS011;22263;52.260;10.548;2022-08-19T15:16:31;4.95;;;4.13;;
7049;SDS011;22263;52.260;10.548;2022-08-19T15:19:02;4.00;;;3.65;;
7049;SDS011;22263;52.260;10.548;2022-08-19T15:21:31;3.67;;;3.38;;
7049;SDS011;22263;52.260;10.548;2022-08-19T15:24:00;4.18;;;3.58;;
7049;SDS011;22263;52.260;10.548;2022-08-19T15:26:33;4.40;;;3.65;;
7049;SDS011;22263;52.260;10.548;2022-08-19T15:29:03;4.20;;;3.80;;
7049;SDS011;22263;52.260;10.548;2022-08-19T15:31:33;5.25;;;3.92;;
7049;SDS011;22263;52.260;10.548;2022-08-19T15:34:04;3.80;;;3.47;;